ראשי / חיפושים אחרונים

חיפושים אחרונים

לוחית
סוג רכב
דגם
שנה
תאריך חיפוש
שעת חיפוש
8764237 ניסאן הודו MICRA 2017 03/09/2026 13:37:40
1912434 יונדאי קוריאה הדרומית IX35 2015 03/09/2026 13:37:37
1597239 סובארו יפן B4 2016 03/09/2026 13:37:36
68757003 קיה קוריאה הדרומית SELTOS 2024 03/09/2026 13:37:36
18311703 ב מ וו ארהב" X6 XDRIVE 40I 2022 03/09/2026 13:37:35
7657684 דאצ'יה רומניה DUSTER 2017 03/09/2026 13:37:32
9041058 איסוזו תורכיה - 2017 03/09/2026 13:37:30
51148403 פורד תאילנד RANGER RAPTOR 2023 03/09/2026 13:37:25
2787773 יונדאי הודו I20 2010 03/09/2026 13:37:25
21605103 טויוטה יפן LAND CRUISER 2022 03/09/2026 13:37:22
5636864 פיג'ו צרפת 2008 2014 03/09/2026 13:37:22
1146811 יונדאי טורקיה I20 2013 03/09/2026 13:37:17
1572854 ניסאן בריטניה QASHQAI 2014 03/09/2026 13:37:15
93880101 ב מ וו גרמניה - 2023 03/09/2026 13:37:13
22599702 טויוטה יפן PRIUS PLUS 2020 03/09/2026 13:37:13
33147404 ג'י.אמ.סי ארה - 2025 03/09/2026 13:37:11
2704850 דייהטסו יפן TERIOS 2005 03/09/2026 13:37:09
3403614 מזדה יפן MPV 2006 03/09/2026 13:37:03
9125855 שברולט ארהב" - 1986 03/09/2026 13:37:02
1558933 ניסאן בריטניה JUKE 2015 03/09/2026 13:37:00
8376858 טויוטה יפן COROLLA 2005 03/09/2026 13:36:55
1604671 סקודה צ'כיה YETI 2010 03/09/2026 13:36:53
1130760 יונדאי קוריאה הדרומית GETZ 2007 03/09/2026 13:36:51
22943801 סוזוקי יפן IGNIS 2017 03/09/2026 13:36:50
35130802 רנו צרפת - 2021 03/09/2026 13:36:49
3199072 איווקו איטליה - 2010 03/09/2026 13:36:45
67076703 לקסוס יפן LEXUS LBX 2024 03/09/2026 13:36:40
26249701 פיאט סרביה 500L 2017 03/09/2026 13:36:37
17321703 קיה קוריאה הדרומית PICANTO 2022 03/09/2026 13:36:37
35044904 אאודי גרמניה A3 SPORTBACK 2025 03/09/2026 13:36:37
93135501 טויוטה יפן - 2022 03/09/2026 13:36:33
3305017 הונדה יפן CR-V 1998 03/09/2026 13:36:31
9123587 סיטרואן צרפת JUMPY 2017 03/09/2026 13:36:29
7766161 יונדאי טורקיה ACCENT 2007 03/09/2026 13:36:26
3390929 רנו ספרד מגאן TR 6.1 5דלתו 1999 03/09/2026 13:36:21
85501203 מזדה יפן MAZDA CX-5 2024 03/09/2026 13:36:16
29969101 מזדה יפן CX-5 2018 03/09/2026 13:36:15
64662302 קיה סלובקיה CEED 2021 03/09/2026 13:36:14
3742680 פולקסווגן מקסיקה JETTA 2017 03/09/2026 13:36:13
13275404 סקודה צ'כיה SCALA FL 2024 03/09/2026 13:36:10
3742680 פולקסווגן מקסיקה JETTA 2017 03/09/2026 13:36:09
4359771 מזדה יפן MAZDA 3 2010 03/09/2026 13:36:08
7381737 רנו טורקיה CLIO 2016 03/09/2026 13:36:07
6025253 אאודי גרמניה A3 2014 03/09/2026 13:36:04
1094627 פיאט איטליה פיאט פונטו 57 S 1997 03/09/2026 13:36:04
4610468 הונדה יפן ACCORD 2009 03/09/2026 13:36:03
3522455 שברולט מקסיקו CRUZE 2017 03/09/2026 13:36:03
52087901 יונדאי קוריאה הדרומית IONIQ HYBRID 2018 03/09/2026 13:36:02
24181604 סקודה צ'כיה KODIAQ 2025 03/09/2026 13:36:00
84196701 יונדאי קוריאה הדרומית ELANTRA 2019 03/09/2026 13:35:59
5901434 סוזוקי יפן GRAND VITARA 2015 03/09/2026 13:35:56
7036237 רנו צרפת - 2016 03/09/2026 13:35:54
9461879 מרצדס בנץ גרמנ - 2016 03/09/2026 13:35:53
4279005 פיאט איטליה - 1993 03/09/2026 13:35:53
70333102 טויוטה טורקיה C-HR HYBRID 2021 03/09/2026 13:35:52
1514175 סובארו יפן OUTBACK 2011 03/09/2026 13:35:49
2444970 טויוטה יפן COROLLA 2009 03/09/2026 13:35:45
4399672 שברולט ארהב" TRAVERSE 2011 03/09/2026 13:35:45
6126674 יונדאי הודו I20 2010 03/09/2026 13:35:43
1064375 סיטרואן צרפת JUMPY HDI 2011 03/09/2026 13:35:43
60743102 איווקו איטליה - 2021 03/09/2026 13:35:38
4583069 רנו טורקיה MEGANE II 2009 03/09/2026 13:35:28
9738331 ניסאן בריטניה QASHQAI 2015 03/09/2026 13:35:27
34376704 צ'רי סין TIGGO 4 PRO 2025 03/09/2026 13:35:26
37175603 שברולט ארהב" - 2024 03/09/2026 13:35:25
86524901 ימהה יפן - 2019 03/09/2026 13:35:23
6287272 מיצובישי יפן LANCER 2010 03/09/2026 13:35:22
4540072 ביואיק ארהב" LACROSSE 2010 03/09/2026 13:35:18
73426303 בי ווי די סין SEAL 2024 03/09/2026 13:35:14
3379350 ניסאן בריטניה ALMERA 2003 03/09/2026 13:35:13
4985130 טויוטה בריטניה AURIS 2014 03/09/2026 13:35:12
26187501 סקודה צ'כיה SUPERB 2017 03/09/2026 13:35:10
4931576 יונדאי צ'כיה I30 2011 03/09/2026 13:35:08
2858133 פיג'ו צרפת - 1995 03/09/2026 13:35:08
52926202 לקסוס יפן LEXUS IS300 2021 03/09/2026 13:35:05
93145601 דונקרוורת - 2021 03/09/2026 13:35:05
1108633 פיאט איטליה - 2015 03/09/2026 13:35:03
1207471 פולקסווגן גרמניה NEW TRANSPORTER 2010 03/09/2026 13:35:03
6657832 פיאט טורקיה QUBO 2014 03/09/2026 13:35:01
1705537 טויוטה בריטניה AURIS HYBRID 2016 03/09/2026 13:34:58
10745803 סוזוקי יפן SWIFT 2022 03/09/2026 13:34:56
35153502 וולבו בלגיה - 2021 03/09/2026 13:34:54
5622675 ב מ וו גרמניה 320I 2012 03/09/2026 13:34:53
10739602 סיטרואן צרפת JUMPY 2020 03/09/2026 13:34:52
6433329 מזדה יפן מאזדה יפן 5XM 1997 03/09/2026 13:34:51
9216971 סקודה צ'כיה OCTAVIA 2001 03/09/2026 13:34:50
2911969 מזדה יפן MAZDA 3 2009 03/09/2026 13:34:50
66419002 טויוטה בריטניה COROLLA TS HSD 2021 03/09/2026 13:34:48
71268001 קיה סלובקיה SPORTAGE 2020 03/09/2026 13:34:48
1222788 ב מ וו גרמניה - 1988 03/09/2026 13:34:48
9381137 רנו טורקיה CLIO 2017 03/09/2026 13:34:46
4985130 טויוטה בריטניה AURIS 2014 03/09/2026 13:34:45
82448502 טויוטה תאילנד HILUX 2022 03/09/2026 13:34:44
6994326 טויוטה יפן RAV 4 HYBRID 2022 03/09/2026 13:34:38
75694002 סקודה צ'כיה KODIAQ FL 2022 03/09/2026 13:34:37
4610468 הונדה יפן ACCORD 2009 03/09/2026 13:34:35
7759580 פיאט פולין FIAT 500 ABARTH 2016 03/09/2026 13:34:34
5992663 יונדאי קוריאה הדרומית TUCSON 2008 03/09/2026 13:34:33
1031572 קיה קוריאה הדרומית RIO 2009 03/09/2026 13:34:32
4778720 מרצדס גרמניה פרטי 2 דלתות+גג 1998 03/09/2026 13:34:27
6226853 סקודה צ'כיה OCTAVIA 2014 03/09/2026 13:34:27
77772101 מרצדס ארהב" GLE 350D 4MATIC 2020 03/09/2026 13:34:26
8824076 סקודה צ'כיה OCTAVIA 2012 03/09/2026 13:34:24
37175603 שברולט ארהב" - 2024 03/09/2026 13:34:23
274444 טריאומף אנגליה - 1968 03/09/2026 13:34:23
39960703 מזדה יפן MAZDA3 2023 03/09/2026 13:34:21
1608756 פיאט איטליה - 1986 03/09/2026 13:34:19
3724755 דיילים ד.קוריא - 2017 03/09/2026 13:34:19
21610504 טויוטה יפן COROLLA CROSS 2025 03/09/2026 13:34:13
4448226 מ.ג סין ZS 2025 03/09/2026 13:34:12
32583403 קוואסאקי תאילנ - 2023 03/09/2026 13:34:11
4985130 טויוטה בריטניה AURIS 2014 03/09/2026 13:34:11
2692130 פורד ארהב" - 2016 03/09/2026 13:34:10
6522369 יונדאי צ'כיה I30 2009 03/09/2026 13:34:05
1070033 פיאט פולין FIAT 500 ABARTH 2015 03/09/2026 13:34:03
46266402 יונדאי קוריאה הדרומית IONIQ HYBRID 2021 03/09/2026 13:34:03
5975489 קוואסאקי תאילנ - 2017 03/09/2026 13:34:02
16263902 טויוטה טורקיה COROLLA HSD SDN 2020 03/09/2026 13:33:59
56016501 סקודה צ'כיה KAROQ 2018 03/09/2026 13:33:59
4401271 מזדה יפן MAZDA 6 2010 03/09/2026 13:33:54
2220223 סובארו יפן IMPREZA TURBO 2000 03/09/2026 13:33:54
9954410 איסוזו יפן TROOPER 2002 03/09/2026 13:33:49
31457302 מ.ג סין EHS PHEV 2022 03/09/2026 13:33:49
36759101 איסוזו טורקיה - 2019 03/09/2026 13:33:49
1070033 פיאט פולין FIAT 500 ABARTH 2015 03/09/2026 13:33:48
6699627 מזדה יפן 323 LANTIS 1999 03/09/2026 13:33:47
7538874 קיה קוריאה הדרומית FORTE 2011 03/09/2026 13:33:46
9314261 שברולט ארהב" - 1974 03/09/2026 13:33:44
42536701 קיה קוריאה הדרומית NIRO 2018 03/09/2026 13:33:42
14609404 דאף אנגליה - 2025 03/09/2026 13:33:40
6522369 יונדאי צ'כיה I30 2009 03/09/2026 13:33:37
1402834 מיצובישי תאילנד SPACE STAR 2015 03/09/2026 13:33:37
7741676 פולקסווגן מקסיקה JETTA 2012 03/09/2026 13:33:32
91129001 וולבו שבדיה S80 D3 2012 03/09/2026 13:33:31
6156813 פיג'ו תורכיה PARTNER 2012 03/09/2026 13:33:29
1402131 מיצובישי תאילנד SPACE STAR 2014 03/09/2026 13:33:28
2368112 סקודה צ'כיה CITIGO 2012 03/09/2026 13:33:27
1168960 טויוטה יפן COROLLA 2006 03/09/2026 13:33:26
2844075 שברולט קוריאה הדרומית CAPTIVA 2011 03/09/2026 13:33:25
41595204 ג'אקו סין JAECOO7 PHEV 2025 03/09/2026 13:33:22
43255503 מזדה יפן MAZDA CX-30 2024 03/09/2026 13:33:20
12305503 מאן אוסטריה - 2022 03/09/2026 13:33:20
46266402 יונדאי קוריאה הדרומית IONIQ HYBRID 2021 03/09/2026 13:33:19
2956176 דאף-הולנד - 2012 03/09/2026 13:33:15
2899669 מזדה יפן MAZDA 3 2009 03/09/2026 13:33:15
6460569 דימלרקריזלר-גר - 2010 03/09/2026 13:33:10
19312002 לנדיני - 2020 03/09/2026 13:33:09
8997308 טויוטה יפן LAND CRUISER 2017 03/09/2026 13:33:05
4316775 מזדה יפן MAZDA 3 2012 03/09/2026 13:33:02
71081201 קיה קוריאה הדרומית STONIC 2020 03/09/2026 13:33:01
9601387 פולאריס מקסיקו - 2019 03/09/2026 13:33:00
39375102 יונדאי קוריאה הדרומית SONATA HYBRID 2021 03/09/2026 13:32:59
17028002 סקודה צ'כיה OCTAVIA 2020 03/09/2026 13:32:57
37299202 פולקסווגן גרמניה T6 TRANSPORTER 2021 03/09/2026 13:32:56
7988680 מק - 1980 03/09/2026 13:32:55
63671402 יונדאי טורקיה I20 2022 03/09/2026 13:32:53
1620530 סובארו יפן IMPREZA 2015 03/09/2026 13:32:51
5534716 ב מ וו בריטניה MINI 2002 03/09/2026 13:32:48
3590587 הונדה בריטניה CIVIC 2017 03/09/2026 13:32:47
83665902 סקודה צ'כיה KAROQ 2022 03/09/2026 13:32:46
6550265 מזדה יפן MAZDA 3 2008 03/09/2026 13:32:46
4288213 שברולט ד.קוריא SONIC LS 2012 03/09/2026 13:32:45
34281601 מזדה יפן MAZDA 3 2018 03/09/2026 13:32:44
1023032 יונדאי קוריאה הדרומית I35 2014 03/09/2026 13:32:44
64846504 בי ווי די סין BYD ATTO 2 DM-I 2026 03/09/2026 13:32:43
1216337 טויוטה ארהב" CAMRY HYBRID 2016 03/09/2026 13:32:43
8474686 טויוטה תאילנד HILUX 2019 03/09/2026 13:32:42
2073653 פולקסווגן מקסיקה JETTA 2014 03/09/2026 13:32:42
1697128 בומברדיה קנדה - 2019 03/09/2026 13:32:41
3361771 מזדה יפן MAZDA 3 2010 03/09/2026 13:32:41
4732232 טויוטה טורקיה COROLLA 2015 03/09/2026 13:32:41
2962213 סוזוקי הונגריה SWIFT 2012 03/09/2026 13:32:40
2999561 טויוטה יפן PRIUS HYBRID 2007 03/09/2026 13:32:40
34565802 וולבו שבדיה XC60 RECHARGET8 2021 03/09/2026 13:32:39
8458586 טויוטה תאילנד HILUX 2019 03/09/2026 13:32:39
6522369 יונדאי צ'כיה I30 2009 03/09/2026 13:32:35
53326902 סקודה צ'כיה KODIAQ 2021 03/09/2026 13:32:24
1044513 איווקו איטליה - 2006 03/09/2026 13:32:24
1715972 קיה סלובקיה CEED 2010 03/09/2026 13:32:20
4657337 יונדאי קוריאה הדרומית I25 2016 03/09/2026 13:32:19
64846504 בי ווי די סין BYD ATTO 2 DM-I 2026 03/09/2026 13:32:17
8238985 א.ג.נגררים - 2017 03/09/2026 13:32:16
64846504 בי ווי די סין BYD ATTO 2 DM-I 2026 03/09/2026 13:32:16
32934004 גלובל הנדסה - 2025 03/09/2026 13:32:05
64846504 בי ווי די סין BYD ATTO 2 DM-I 2026 03/09/2026 13:32:04
17028002 סקודה צ'כיה OCTAVIA 2020 03/09/2026 13:32:03
7166667 סובארו יפן IMPREZA TORB0 2009 03/09/2026 13:32:02
17028002 סקודה צ'כיה OCTAVIA 2020 03/09/2026 13:31:55
39980602 מיצובישי תאילנד L200 2021 03/09/2026 13:31:47
7045052 טויוטה יפן PRIUS HYBRID 2014 03/09/2026 13:31:44
77654702 סקודה צ'כיה SUPERB 2023 03/09/2026 13:31:43
64846504 בי ווי די סין BYD ATTO 2 DM-I 2026 03/09/2026 13:31:41
62455902 יונדאי טורקיה I10 2021 03/09/2026 13:31:40
1117374 יונדאי צ'כיה I30 2010 03/09/2026 13:31:24
7272138 קיה סלובקיה CEED 2016 03/09/2026 13:31:23
64590304 צ'רי סין TIGGO8PRO PHEV 2026 03/09/2026 13:31:19
33642804 טויוטה ספרד TOYOTA CITY 2025 03/09/2026 13:31:18
3355914 פורד ספרד FOCUS 2006 03/09/2026 13:31:18
78453601 וולבו שבדיה XC60 T8 2020 03/09/2026 13:31:12
40703801 קיה קוריאה הדרומית PICANTO 2018 03/09/2026 13:31:11
וואטסאפ